sensor_id;sensor_type;location;lat;lon;timestamp;P1;durP1;ratioP1;P2;durP2;ratioP2
35550;SDS011;21655;46.056;13.616;2022-08-16T00:00:47;7.03;;;4.80;;
35550;SDS011;21655;46.056;13.616;2022-08-16T00:03:14;6.00;;;4.75;;
35550;SDS011;21655;46.056;13.616;2022-08-16T00:05:42;8.60;;;5.00;;
35550;SDS011;21655;46.056;13.616;2022-08-16T00:08:09;6.68;;;4.90;;
35550;SDS011;21655;46.056;13.616;2022-08-16T00:10:35;8.20;;;4.82;;
35550;SDS011;21655;46.056;13.616;2022-08-16T00:13:02;11.35;;;4.47;;
35550;SDS011;21655;46.056;13.616;2022-08-16T00:15:31;8.75;;;5.50;;
35550;SDS011;21655;46.056;13.616;2022-08-16T00:17:59;7.93;;;4.97;;
35550;SDS011;21655;46.056;13.616;2022-08-16T00:20:25;13.50;;;5.10;;
35550;SDS011;21655;46.056;13.616;2022-08-16T00:22:51;8.77;;;4.70;;
35550;SDS011;21655;46.056;13.616;2022-08-16T00:25:17;8.30;;;5.25;;
35550;SDS011;21655;46.056;13.616;2022-08-16T00:27:44;8.77;;;4.80;;
35550;SDS011;21655;46.056;13.616;2022-08-16T00:30:11;9.65;;;4.85;;
35550;SDS011;21655;46.056;13.616;2022-08-16T00:32:43;10.20;;;5.35;;
35550;SDS011;21655;46.056;13.616;2022-08-16T00:35:11;7.18;;;4.85;;
35550;SDS011;21655;46.056;13.616;2022-08-16T00:37:43;9.68;;;4.88;;
35550;SDS011;21655;46.056;13.616;2022-08-16T00:40:10;6.15;;;4.82;;
35550;SDS011;21655;46.056;13.616;2022-08-16T00:42:40;8.38;;;4.80;;
35550;SDS011;21655;46.056;13.616;2022-08-16T00:48:09;7.43;;;4.95;;
35550;SDS011;21655;46.056;13.616;2022-08-16T00:50:38;7.50;;;5.22;;
35550;SDS011;21655;46.056;13.616;2022-08-16T00:53:05;11.75;;;5.38;;
35550;SDS011;21655;46.056;13.616;2022-08-16T00:55:32;8.45;;;4.78;;
35550;SDS011;21655;46.056;13.616;2022-08-16T00:58:00;7.50;;;4.35;;
35550;SDS011;21655;46.056;13.616;2022-08-16T01:00:26;6.40;;;4.95;;
35550;SDS011;21655;46.056;13.616;2022-08-16T01:02:55;8.18;;;5.05;;
35550;SDS011;21655;46.056;13.616;2022-08-16T01:05:23;11.75;;;4.85;;
35550;SDS011;21655;46.056;13.616;2022-08-16T01:07:49;13.02;;;4.90;;
35550;SDS011;21655;46.056;13.616;2022-08-16T01:10:15;11.15;;;5.07;;
35550;SDS011;21655;46.056;13.616;2022-08-16T01:12:41;6.97;;;4.60;;
35550;SDS011;21655;46.056;13.616;2022-08-16T01:15:07;9.80;;;5.13;;
35550;SDS011;21655;46.056;13.616;2022-08-16T01:17:32;7.30;;;5.13;;
35550;SDS011;21655;46.056;13.616;2022-08-16T01:19:59;11.32;;;5.28;;
35550;SDS011;21655;46.056;13.616;2022-08-16T01:25:09;13.60;;;5.65;;
35550;SDS011;21655;46.056;13.616;2022-08-16T01:27:46;9.38;;;5.50;;
35550;SDS011;21655;46.056;13.616;2022-08-16T01:30:20;6.28;;;5.15;;
35550;SDS011;21655;46.056;13.616;2022-08-16T01:35:29;7.85;;;4.85;;
35550;SDS011;21655;46.056;13.616;2022-08-16T01:38:21;6.45;;;4.28;;
35550;SDS011;21655;46.056;13.616;2022-08-16T01:40:49;5.72;;;3.70;;
35550;SDS011;21655;46.056;13.616;2022-08-16T01:43:16;5.07;;;2.70;;
35550;SDS011;21655;46.056;13.616;2022-08-16T01:45:42;4.45;;;3.33;;
35550;SDS011;21655;46.056;13.616;2022-08-16T01:48:08;6.65;;;3.00;;
35550;SDS011;21655;46.056;13.616;2022-08-16T01:50:34;5.38;;;3.15;;
35550;SDS011;21655;46.056;13.616;2022-08-16T01:53:02;4.90;;;3.17;;
35550;SDS011;21655;46.056;13.616;2022-08-16T01:55:28;6.20;;;3.50;;
35550;SDS011;21655;46.056;13.616;2022-08-16T01:57:54;7.22;;;4.70;;
35550;SDS011;21655;46.056;13.616;2022-08-16T02:00:19;8.38;;;4.65;;
35550;SDS011;21655;46.056;13.616;2022-08-16T02:02:45;7.03;;;4.40;;
35550;SDS011;21655;46.056;13.616;2022-08-16T02:05:11;7.35;;;4.47;;
35550;SDS011;21655;46.056;13.616;2022-08-16T02:07:38;6.35;;;4.90;;
35550;SDS011;21655;46.056;13.616;2022-08-16T02:10:04;6.85;;;4.60;;
35550;SDS011;21655;46.056;13.616;2022-08-16T02:12:31;8.20;;;4.35;;
35550;SDS011;21655;46.056;13.616;2022-08-16T02:14:58;9.43;;;4.93;;
35550;SDS011;21655;46.056;13.616;2022-08-16T02:17:24;7.50;;;4.68;;
35550;SDS011;21655;46.056;13.616;2022-08-16T02:19:49;6.40;;;4.25;;
35550;SDS011;21655;46.056;13.616;2022-08-16T02:22:18;12.00;;;4.65;;
35550;SDS011;21655;46.056;13.616;2022-08-16T02:24:45;7.60;;;5.28;;
35550;SDS011;21655;46.056;13.616;2022-08-16T02:27:11;10.15;;;5.65;;
35550;SDS011;21655;46.056;13.616;2022-08-16T02:29:37;10.55;;;5.65;;
35550;SDS011;21655;46.056;13.616;2022-08-16T02:32:04;8.35;;;5.68;;
35550;SDS011;21655;46.056;13.616;2022-08-16T02:34:30;8.02;;;5.53;;
35550;SDS011;21655;46.056;13.616;2022-08-16T02:36:56;7.45;;;5.40;;
35550;SDS011;21655;46.056;13.616;2022-08-16T02:39:22;7.85;;;5.07;;
35550;SDS011;21655;46.056;13.616;2022-08-16T02:41:48;6.47;;;4.68;;
35550;SDS011;21655;46.056;13.616;2022-08-16T02:44:14;7.15;;;4.97;;
35550;SDS011;21655;46.056;13.616;2022-08-16T02:46:41;7.80;;;5.32;;
35550;SDS011;21655;46.056;13.616;2022-08-16T02:49:07;4.68;;;3.97;;
35550;SDS011;21655;46.056;13.616;2022-08-16T02:51:35;4.40;;;3.30;;
35550;SDS011;21655;46.056;13.616;2022-08-16T02:54:02;5.65;;;3.50;;
35550;SDS011;21655;46.056;13.616;2022-08-16T02:56:28;5.30;;;3.13;;
35550;SDS011;21655;46.056;13.616;2022-08-16T02:58:54;5.45;;;2.88;;
35550;SDS011;21655;46.056;13.616;2022-08-16T03:01:24;3.55;;;2.85;;
35550;SDS011;21655;46.056;13.616;2022-08-16T03:03:53;4.07;;;2.78;;
35550;SDS011;21655;46.056;13.616;2022-08-16T03:06:20;5.25;;;2.95;;
35550;SDS011;21655;46.056;13.616;2022-08-16T03:08:47;3.80;;;2.72;;
35550;SDS011;21655;46.056;13.616;2022-08-16T03:11:14;4.43;;;3.05;;
35550;SDS011;21655;46.056;13.616;2022-08-16T03:13:42;6.25;;;3.78;;
35550;SDS011;21655;46.056;13.616;2022-08-16T03:16:09;6.03;;;3.47;;
35550;SDS011;21655;46.056;13.616;2022-08-16T03:18:36;7.78;;;4.00;;
35550;SDS011;21655;46.056;13.616;2022-08-16T03:21:02;7.25;;;4.10;;
35550;SDS011;21655;46.056;13.616;2022-08-16T03:23:27;7.75;;;4.28;;
35550;SDS011;21655;46.056;13.616;2022-08-16T03:25:53;6.55;;;3.83;;
35550;SDS011;21655;46.056;13.616;2022-08-16T03:28:18;8.20;;;4.03;;
35550;SDS011;21655;46.056;13.616;2022-08-16T03:30:44;6.50;;;4.30;;
35550;SDS011;21655;46.056;13.616;2022-08-16T03:33:11;4.88;;;3.90;;
35550;SDS011;21655;46.056;13.616;2022-08-16T03:35:37;6.05;;;4.20;;
35550;SDS011;21655;46.056;13.616;2022-08-16T03:38:04;8.07;;;4.50;;
35550;SDS011;21655;46.056;13.616;2022-08-16T03:40:32;6.35;;;4.45;;
35550;SDS011;21655;46.056;13.616;2022-08-16T03:43:00;10.35;;;4.72;;
35550;SDS011;21655;46.056;13.616;2022-08-16T03:45:29;9.30;;;5.50;;
35550;SDS011;21655;46.056;13.616;2022-08-16T03:47:55;8.48;;;4.88;;
35550;SDS011;21655;46.056;13.616;2022-08-16T03:50:21;8.23;;;6.53;;
35550;SDS011;21655;46.056;13.616;2022-08-16T03:52:46;7.47;;;5.78;;
35550;SDS011;21655;46.056;13.616;2022-08-16T03:55:12;8.68;;;6.20;;
35550;SDS011;21655;46.056;13.616;2022-08-16T03:57:38;8.57;;;5.82;;
35550;SDS011;21655;46.056;13.616;2022-08-16T04:00:08;11.02;;;6.13;;
35550;SDS011;21655;46.056;13.616;2022-08-16T04:02:37;8.80;;;4.97;;
35550;SDS011;21655;46.056;13.616;2022-08-16T04:05:04;5.68;;;4.70;;
35550;SDS011;21655;46.056;13.616;2022-08-16T04:07:30;7.90;;;6.15;;
35550;SDS011;21655;46.056;13.616;2022-08-16T04:09:56;11.60;;;6.32;;
35550;SDS011;21655;46.056;13.616;2022-08-16T04:12:21;11.40;;;6.88;;
35550;SDS011;21655;46.056;13.616;2022-08-16T04:14:47;12.43;;;6.40;;
35550;SDS011;21655;46.056;13.616;2022-08-16T04:17:13;8.13;;;5.85;;
35550;SDS011;21655;46.056;13.616;2022-08-16T04:19:39;8.05;;;5.97;;
35550;SDS011;21655;46.056;13.616;2022-08-16T04:22:05;8.13;;;5.60;;
35550;SDS011;21655;46.056;13.616;2022-08-16T04:24:31;9.10;;;4.95;;
35550;SDS011;21655;46.056;13.616;2022-08-16T04:26:57;11.13;;;5.43;;
35550;SDS011;21655;46.056;13.616;2022-08-16T04:29:23;8.93;;;5.30;;
35550;SDS011;21655;46.056;13.616;2022-08-16T04:31:48;6.60;;;4.20;;
35550;SDS011;21655;46.056;13.616;2022-08-16T04:34:16;6.18;;;3.67;;
35550;SDS011;21655;46.056;13.616;2022-08-16T04:36:41;5.13;;;3.70;;
35550;SDS011;21655;46.056;13.616;2022-08-16T04:39:07;8.57;;;4.70;;
35550;SDS011;21655;46.056;13.616;2022-08-16T04:41:32;7.25;;;4.82;;
35550;SDS011;21655;46.056;13.616;2022-08-16T04:43:58;6.57;;;4.25;;
35550;SDS011;21655;46.056;13.616;2022-08-16T04:46:24;7.47;;;5.32;;
35550;SDS011;21655;46.056;13.616;2022-08-16T04:48:49;8.82;;;5.03;;
35550;SDS011;21655;46.056;13.616;2022-08-16T04:51:15;7.65;;;5.13;;
35550;SDS011;21655;46.056;13.616;2022-08-16T04:53:40;8.70;;;4.80;;
35550;SDS011;21655;46.056;13.616;2022-08-16T04:56:06;7.88;;;4.80;;
35550;SDS011;21655;46.056;13.616;2022-08-16T04:58:32;6.35;;;4.80;;
35550;SDS011;21655;46.056;13.616;2022-08-16T05:00:58;8.82;;;5.03;;
35550;SDS011;21655;46.056;13.616;2022-08-16T05:03:25;7.72;;;4.95;;
35550;SDS011;21655;46.056;13.616;2022-08-16T05:05:51;8.05;;;5.50;;
35550;SDS011;21655;46.056;13.616;2022-08-16T05:08:17;7.97;;;5.32;;
35550;SDS011;21655;46.056;13.616;2022-08-16T05:10:42;7.25;;;5.43;;
35550;SDS011;21655;46.056;13.616;2022-08-16T05:13:08;11.13;;;6.32;;
35550;SDS011;21655;46.056;13.616;2022-08-16T05:15:34;11.00;;;6.85;;
35550;SDS011;21655;46.056;13.616;2022-08-16T05:18:01;8.48;;;5.85;;
35550;SDS011;21655;46.056;13.616;2022-08-16T05:20:28;9.70;;;6.07;;
35550;SDS011;21655;46.056;13.616;2022-08-16T05:22:53;11.25;;;5.60;;
35550;SDS011;21655;46.056;13.616;2022-08-16T05:25:19;8.43;;;5.95;;
35550;SDS011;21655;46.056;13.616;2022-08-16T05:27:45;7.75;;;6.18;;
35550;SDS011;21655;46.056;13.616;2022-08-16T05:30:12;13.00;;;6.05;;
35550;SDS011;21655;46.056;13.616;2022-08-16T05:32:38;8.70;;;5.88;;
35550;SDS011;21655;46.056;13.616;2022-08-16T05:35:06;9.18;;;5.10;;
35550;SDS011;21655;46.056;13.616;2022-08-16T05:37:34;7.38;;;5.25;;
35550;SDS011;21655;46.056;13.616;2022-08-16T05:40:01;8.55;;;5.15;;
35550;SDS011;21655;46.056;13.616;2022-08-16T05:42:28;9.40;;;5.30;;
35550;SDS011;21655;46.056;13.616;2022-08-16T05:44:53;6.65;;;4.65;;
35550;SDS011;21655;46.056;13.616;2022-08-16T05:47:19;7.32;;;4.60;;
35550;SDS011;21655;46.056;13.616;2022-08-16T05:49:45;6.82;;;4.60;;
35550;SDS011;21655;46.056;13.616;2022-08-16T05:52:11;8.15;;;4.60;;
35550;SDS011;21655;46.056;13.616;2022-08-16T05:54:36;6.22;;;4.40;;
35550;SDS011;21655;46.056;13.616;2022-08-16T05:57:02;12.00;;;5.47;;
35550;SDS011;21655;46.056;13.616;2022-08-16T05:59:29;7.32;;;4.95;;
35550;SDS011;21655;46.056;13.616;2022-08-16T06:01:55;6.93;;;4.65;;
35550;SDS011;21655;46.056;13.616;2022-08-16T06:04:20;6.30;;;4.82;;
35550;SDS011;21655;46.056;13.616;2022-08-16T06:06:46;7.15;;;4.82;;
35550;SDS011;21655;46.056;13.616;2022-08-16T06:09:13;6.65;;;5.20;;
35550;SDS011;21655;46.056;13.616;2022-08-16T06:11:39;8.48;;;4.38;;
35550;SDS011;21655;46.056;13.616;2022-08-16T06:14:05;5.53;;;4.10;;
35550;SDS011;21655;46.056;13.616;2022-08-16T06:16:31;7.05;;;4.30;;
35550;SDS011;21655;46.056;13.616;2022-08-16T06:18:57;6.57;;;4.53;;
35550;SDS011;21655;46.056;13.616;2022-08-16T06:21:22;6.07;;;4.30;;
35550;SDS011;21655;46.056;13.616;2022-08-16T06:23:48;5.65;;;4.72;;
35550;SDS011;21655;46.056;13.616;2022-08-16T06:26:14;10.30;;;4.70;;
35550;SDS011;21655;46.056;13.616;2022-08-16T06:28:39;8.73;;;4.38;;
35550;SDS011;21655;46.056;13.616;2022-08-16T06:31:07;7.70;;;4.05;;
35550;SDS011;21655;46.056;13.616;2022-08-16T06:33:34;7.88;;;4.43;;
35550;SDS011;21655;46.056;13.616;2022-08-16T06:35:59;6.70;;;4.20;;
35550;SDS011;21655;46.056;13.616;2022-08-16T06:38:25;7.40;;;4.63;;
35550;SDS011;21655;46.056;13.616;2022-08-16T06:40:52;9.50;;;4.80;;
35550;SDS011;21655;46.056;13.616;2022-08-16T06:43:17;9.50;;;4.78;;
35550;SDS011;21655;46.056;13.616;2022-08-16T06:45:44;7.25;;;4.47;;
35550;SDS011;21655;46.056;13.616;2022-08-16T06:48:10;6.65;;;4.45;;
35550;SDS011;21655;46.056;13.616;2022-08-16T06:50:36;7.45;;;4.45;;
35550;SDS011;21655;46.056;13.616;2022-08-16T06:53:02;4.95;;;3.97;;
35550;SDS011;21655;46.056;13.616;2022-08-16T06:55:28;5.40;;;3.97;;
35550;SDS011;21655;46.056;13.616;2022-08-16T06:57:54;7.00;;;4.15;;
35550;SDS011;21655;46.056;13.616;2022-08-16T07:00:21;6.80;;;3.97;;
35550;SDS011;21655;46.056;13.616;2022-08-16T07:02:48;6.28;;;4.00;;
35550;SDS011;21655;46.056;13.616;2022-08-16T07:05:14;5.53;;;3.30;;
35550;SDS011;21655;46.056;13.616;2022-08-16T07:07:41;6.10;;;3.38;;
35550;SDS011;21655;46.056;13.616;2022-08-16T07:10:09;6.40;;;3.60;;
35550;SDS011;21655;46.056;13.616;2022-08-16T07:12:35;5.32;;;3.50;;
35550;SDS011;21655;46.056;13.616;2022-08-16T07:15:01;5.63;;;3.97;;
35550;SDS011;21655;46.056;13.616;2022-08-16T07:17:28;6.70;;;4.03;;
35550;SDS011;21655;46.056;13.616;2022-08-16T07:19:56;9.88;;;3.88;;
35550;SDS011;21655;46.056;13.616;2022-08-16T07:22:21;11.10;;;3.95;;
35550;SDS011;21655;46.056;13.616;2022-08-16T07:24:47;5.97;;;3.95;;
35550;SDS011;21655;46.056;13.616;2022-08-16T07:27:12;5.85;;;3.58;;
35550;SDS011;21655;46.056;13.616;2022-08-16T07:29:38;11.05;;;3.22;;
35550;SDS011;21655;46.056;13.616;2022-08-16T07:32:04;7.68;;;2.90;;
35550;SDS011;21655;46.056;13.616;2022-08-16T07:34:30;6.07;;;2.67;;
35550;SDS011;21655;46.056;13.616;2022-08-16T07:36:57;5.38;;;2.67;;
35550;SDS011;21655;46.056;13.616;2022-08-16T07:39:24;7.32;;;2.60;;
35550;SDS011;21655;46.056;13.616;2022-08-16T07:41:50;7.35;;;2.50;;
35550;SDS011;21655;46.056;13.616;2022-08-16T07:44:16;5.97;;;2.47;;
35550;SDS011;21655;46.056;13.616;2022-08-16T07:46:41;6.63;;;2.67;;
35550;SDS011;21655;46.056;13.616;2022-08-16T07:49:06;7.90;;;2.10;;
35550;SDS011;21655;46.056;13.616;2022-08-16T07:51:32;4.05;;;2.47;;
35550;SDS011;21655;46.056;13.616;2022-08-16T07:54:00;5.10;;;2.45;;
35550;SDS011;21655;46.056;13.616;2022-08-16T07:56:28;4.65;;;2.50;;
35550;SDS011;21655;46.056;13.616;2022-08-16T07:58:53;7.40;;;2.50;;
35550;SDS011;21655;46.056;13.616;2022-08-16T08:01:19;3.85;;;2.35;;
35550;SDS011;21655;46.056;13.616;2022-08-16T08:03:47;5.85;;;2.60;;
35550;SDS011;21655;46.056;13.616;2022-08-16T08:06:13;7.22;;;2.20;;
35550;SDS011;21655;46.056;13.616;2022-08-16T08:08:39;5.40;;;2.28;;
35550;SDS011;21655;46.056;13.616;2022-08-16T08:11:06;7.57;;;2.55;;
35550;SDS011;21655;46.056;13.616;2022-08-16T08:13:32;4.45;;;2.28;;
35550;SDS011;21655;46.056;13.616;2022-08-16T08:15:58;7.40;;;2.38;;
35550;SDS011;21655;46.056;13.616;2022-08-16T08:18:23;4.07;;;1.98;;
35550;SDS011;21655;46.056;13.616;2022-08-16T08:20:49;5.28;;;1.70;;
35550;SDS011;21655;46.056;13.616;2022-08-16T08:23:14;3.33;;;1.88;;
35550;SDS011;21655;46.056;13.616;2022-08-16T08:25:40;3.47;;;1.90;;
35550;SDS011;21655;46.056;13.616;2022-08-16T08:28:07;5.22;;;2.00;;
35550;SDS011;21655;46.056;13.616;2022-08-16T08:30:33;3.28;;;1.80;;
35550;SDS011;21655;46.056;13.616;2022-08-16T08:32:59;3.25;;;1.60;;
35550;SDS011;21655;46.056;13.616;2022-08-16T08:35:25;5.22;;;2.10;;
35550;SDS011;21655;46.056;13.616;2022-08-16T08:37:51;4.95;;;1.88;;
35550;SDS011;21655;46.056;13.616;2022-08-16T08:40:16;2.53;;;1.70;;
35550;SDS011;21655;46.056;13.616;2022-08-16T08:42:42;4.28;;;1.95;;
35550;SDS011;21655;46.056;13.616;2022-08-16T08:45:08;4.25;;;2.00;;
35550;SDS011;21655;46.056;13.616;2022-08-16T08:47:35;5.85;;;2.03;;
35550;SDS011;21655;46.056;13.616;2022-08-16T08:50:02;3.17;;;1.80;;
35550;SDS011;21655;46.056;13.616;2022-08-16T08:52:29;4.30;;;1.90;;
35550;SDS011;21655;46.056;13.616;2022-08-16T08:54:54;5.75;;;2.00;;
35550;SDS011;21655;46.056;13.616;2022-08-16T08:57:20;4.78;;;1.90;;
35550;SDS011;21655;46.056;13.616;2022-08-16T08:59:46;4.43;;;1.98;;
35550;SDS011;21655;46.056;13.616;2022-08-16T09:02:12;4.43;;;1.75;;
35550;SDS011;21655;46.056;13.616;2022-08-16T09:04:38;7.40;;;2.03;;
35550;SDS011;21655;46.056;13.616;2022-08-16T09:07:04;6.45;;;2.20;;
35550;SDS011;21655;46.056;13.616;2022-08-16T09:09:29;7.47;;;1.98;;
35550;SDS011;21655;46.056;13.616;2022-08-16T09:11:55;5.25;;;1.90;;
35550;SDS011;21655;46.056;13.616;2022-08-16T09:14:21;4.38;;;1.80;;
35550;SDS011;21655;46.056;13.616;2022-08-16T09:16:47;3.47;;;1.92;;
35550;SDS011;21655;46.056;13.616;2022-08-16T09:19:14;4.57;;;1.83;;
35550;SDS011;21655;46.056;13.616;2022-08-16T09:21:39;5.35;;;2.15;;
35550;SDS011;21655;46.056;13.616;2022-08-16T09:24:05;6.05;;;2.10;;
35550;SDS011;21655;46.056;13.616;2022-08-16T09:26:30;4.43;;;2.13;;
35550;SDS011;21655;46.056;13.616;2022-08-16T09:28:56;4.53;;;1.95;;
35550;SDS011;21655;46.056;13.616;2022-08-16T09:31:21;6.00;;;2.00;;
35550;SDS011;21655;46.056;13.616;2022-08-16T09:33:48;5.47;;;2.05;;
35550;SDS011;21655;46.056;13.616;2022-08-16T09:36:15;6.40;;;2.25;;
35550;SDS011;21655;46.056;13.616;2022-08-16T09:38:41;3.97;;;1.95;;
35550;SDS011;21655;46.056;13.616;2022-08-16T09:41:07;3.63;;;1.88;;
35550;SDS011;21655;46.056;13.616;2022-08-16T09:43:34;4.45;;;1.90;;
35550;SDS011;21655;46.056;13.616;2022-08-16T09:46:02;3.85;;;1.95;;
35550;SDS011;21655;46.056;13.616;2022-08-16T09:48:31;4.97;;;1.85;;
35550;SDS011;21655;46.056;13.616;2022-08-16T09:50:58;4.18;;;1.80;;
35550;SDS011;21655;46.056;13.616;2022-08-16T09:53:23;4.60;;;1.80;;
35550;SDS011;21655;46.056;13.616;2022-08-16T09:55:50;3.70;;;1.80;;
35550;SDS011;21655;46.056;13.616;2022-08-16T09:58:19;5.30;;;2.00;;
35550;SDS011;21655;46.056;13.616;2022-08-16T10:00:50;3.95;;;1.90;;
35550;SDS011;21655;46.056;13.616;2022-08-16T10:03:17;4.22;;;1.98;;
35550;SDS011;21655;46.056;13.616;2022-08-16T10:05:44;3.38;;;1.70;;
35550;SDS011;21655;46.056;13.616;2022-08-16T10:08:10;4.18;;;1.80;;
35550;SDS011;21655;46.056;13.616;2022-08-16T10:10:36;4.32;;;2.13;;
35550;SDS011;21655;46.056;13.616;2022-08-16T10:13:05;4.88;;;1.98;;
35550;SDS011;21655;46.056;13.616;2022-08-16T10:15:40;6.00;;;2.05;;
35550;SDS011;21655;46.056;13.616;2022-08-16T10:18:07;4.47;;;2.20;;
35550;SDS011;21655;46.056;13.616;2022-08-16T10:20:36;4.60;;;1.88;;
35550;SDS011;21655;46.056;13.616;2022-08-16T10:23:05;7.25;;;1.65;;
35550;SDS011;21655;46.056;13.616;2022-08-16T10:25:34;4.97;;;1.95;;
35550;SDS011;21655;46.056;13.616;2022-08-16T10:28:01;5.47;;;2.10;;
35550;SDS011;21655;46.056;13.616;2022-08-16T10:30:26;6.43;;;2.00;;
35550;SDS011;21655;46.056;13.616;2022-08-16T10:32:52;4.50;;;2.10;;
35550;SDS011;21655;46.056;13.616;2022-08-16T10:35:18;4.95;;;1.80;;
35550;SDS011;21655;46.056;13.616;2022-08-16T10:37:43;3.35;;;1.88;;
35550;SDS011;21655;46.056;13.616;2022-08-16T10:40:09;5.28;;;2.17;;
35550;SDS011;21655;46.056;13.616;2022-08-16T10:42:35;6.05;;;2.10;;
35550;SDS011;21655;46.056;13.616;2022-08-16T10:45:00;6.97;;;2.10;;
35550;SDS011;21655;46.056;13.616;2022-08-16T10:47:27;6.15;;;2.17;;
35550;SDS011;21655;46.056;13.616;2022-08-16T10:49:53;4.25;;;1.90;;
35550;SDS011;21655;46.056;13.616;2022-08-16T10:52:20;5.35;;;1.92;;
35550;SDS011;21655;46.056;13.616;2022-08-16T10:54:46;5.75;;;2.10;;
35550;SDS011;21655;46.056;13.616;2022-08-16T10:57:12;3.55;;;2.17;;
35550;SDS011;21655;46.056;13.616;2022-08-16T10:59:38;5.25;;;2.33;;
35550;SDS011;21655;46.056;13.616;2022-08-16T11:02:05;6.20;;;2.10;;
35550;SDS011;21655;46.056;13.616;2022-08-16T11:04:31;4.07;;;1.90;;
35550;SDS011;21655;46.056;13.616;2022-08-16T11:06:57;5.43;;;2.00;;
35550;SDS011;21655;46.056;13.616;2022-08-16T11:09:22;3.78;;;2.03;;
35550;SDS011;21655;46.056;13.616;2022-08-16T11:11:48;4.65;;;2.28;;
35550;SDS011;21655;46.056;13.616;2022-08-16T11:14:13;3.88;;;2.05;;
35550;SDS011;21655;46.056;13.616;2022-08-16T11:16:41;3.83;;;2.08;;
35550;SDS011;21655;46.056;13.616;2022-08-16T11:19:08;5.53;;;2.10;;
35550;SDS011;21655;46.056;13.616;2022-08-16T11:21:33;3.78;;;2.35;;
35550;SDS011;21655;46.056;13.616;2022-08-16T11:24:01;5.32;;;2.20;;
35550;SDS011;21655;46.056;13.616;2022-08-16T11:26:27;4.80;;;2.55;;
35550;SDS011;21655;46.056;13.616;2022-08-16T11:28:53;3.67;;;2.00;;
35550;SDS011;21655;46.056;13.616;2022-08-16T11:31:21;5.72;;;2.40;;
35550;SDS011;21655;46.056;13.616;2022-08-16T11:33:48;4.93;;;2.15;;
35550;SDS011;21655;46.056;13.616;2022-08-16T11:36:13;3.92;;;2.22;;
35550;SDS011;21655;46.056;13.616;2022-08-16T11:38:39;5.70;;;2.22;;
35550;SDS011;21655;46.056;13.616;2022-08-16T11:41:04;4.22;;;2.25;;
35550;SDS011;21655;46.056;13.616;2022-08-16T11:43:35;9.02;;;2.58;;
35550;SDS011;21655;46.056;13.616;2022-08-16T11:46:04;5.38;;;2.20;;
35550;SDS011;21655;46.056;13.616;2022-08-16T11:48:32;5.72;;;1.98;;
35550;SDS011;21655;46.056;13.616;2022-08-16T11:50:58;4.00;;;2.20;;
35550;SDS011;21655;46.056;13.616;2022-08-16T11:53:24;4.78;;;2.35;;
35550;SDS011;21655;46.056;13.616;2022-08-16T11:55:52;5.10;;;2.33;;
35550;SDS011;21655;46.056;13.616;2022-08-16T11:58:18;4.28;;;2.45;;
35550;SDS011;21655;46.056;13.616;2022-08-16T12:00:45;5.38;;;2.63;;
35550;SDS011;21655;46.056;13.616;2022-08-16T12:03:12;5.68;;;3.03;;
35550;SDS011;21655;46.056;13.616;2022-08-16T12:05:38;3.83;;;2.40;;
35550;SDS011;21655;46.056;13.616;2022-08-16T12:08:06;5.03;;;2.75;;
35550;SDS011;21655;46.056;13.616;2022-08-16T12:10:33;5.93;;;2.20;;
35550;SDS011;21655;46.056;13.616;2022-08-16T12:13:00;4.82;;;2.60;;
35550;SDS011;21655;46.056;13.616;2022-08-16T12:15:26;6.75;;;2.72;;
35550;SDS011;21655;46.056;13.616;2022-08-16T12:17:53;5.55;;;2.60;;
35550;SDS011;21655;46.056;13.616;2022-08-16T12:20:20;5.65;;;2.28;;
35550;SDS011;21655;46.056;13.616;2022-08-16T12:22:50;5.07;;;2.45;;
35550;SDS011;21655;46.056;13.616;2022-08-16T12:25:16;6.05;;;2.50;;
35550;SDS011;21655;46.056;13.616;2022-08-16T12:27:43;4.75;;;2.30;;
35550;SDS011;21655;46.056;13.616;2022-08-16T12:30:14;5.60;;;2.60;;
35550;SDS011;21655;46.056;13.616;2022-08-16T12:32:42;6.03;;;2.70;;
35550;SDS011;21655;46.056;13.616;2022-08-16T12:35:09;3.13;;;2.20;;
35550;SDS011;21655;46.056;13.616;2022-08-16T12:37:42;7.45;;;2.20;;
35550;SDS011;21655;46.056;13.616;2022-08-16T12:40:08;4.88;;;2.58;;
35550;SDS011;21655;46.056;13.616;2022-08-16T12:42:36;4.88;;;2.33;;
35550;SDS011;21655;46.056;13.616;2022-08-16T12:45:03;3.92;;;2.58;;
35550;SDS011;21655;46.056;13.616;2022-08-16T12:47:31;7.40;;;2.55;;
35550;SDS011;21655;46.056;13.616;2022-08-16T12:50:16;5.43;;;2.40;;
35550;SDS011;21655;46.056;13.616;2022-08-16T12:52:41;4.60;;;2.33;;
35550;SDS011;21655;46.056;13.616;2022-08-16T12:55:07;3.08;;;2.20;;
35550;SDS011;21655;46.056;13.616;2022-08-16T12:57:35;5.78;;;2.60;;
35550;SDS011;21655;46.056;13.616;2022-08-16T13:00:07;4.75;;;2.40;;
35550;SDS011;21655;46.056;13.616;2022-08-16T13:02:37;4.47;;;2.43;;
35550;SDS011;21655;46.056;13.616;2022-08-16T13:05:05;5.97;;;2.38;;
35550;SDS011;21655;46.056;13.616;2022-08-16T13:07:31;9.07;;;2.70;;
35550;SDS011;21655;46.056;13.616;2022-08-16T13:09:58;5.82;;;2.67;;
35550;SDS011;21655;46.056;13.616;2022-08-16T13:12:34;5.00;;;2.28;;
35550;SDS011;21655;46.056;13.616;2022-08-16T13:15:03;5.75;;;2.60;;
35550;SDS011;21655;46.056;13.616;2022-08-16T13:17:32;4.95;;;2.22;;
35550;SDS011;21655;46.056;13.616;2022-08-16T13:19:58;4.95;;;2.20;;
35550;SDS011;21655;46.056;13.616;2022-08-16T13:22:25;4.85;;;2.28;;
35550;SDS011;21655;46.056;13.616;2022-08-16T13:24:51;5.13;;;2.30;;
35550;SDS011;21655;46.056;13.616;2022-08-16T13:27:18;4.75;;;2.30;;
35550;SDS011;21655;46.056;13.616;2022-08-16T13:29:44;5.18;;;2.58;;
35550;SDS011;21655;46.056;13.616;2022-08-16T13:32:09;4.65;;;2.10;;
35550;SDS011;21655;46.056;13.616;2022-08-16T13:34:35;5.40;;;2.30;;
35550;SDS011;21655;46.056;13.616;2022-08-16T13:37:00;6.70;;;2.38;;
35550;SDS011;21655;46.056;13.616;2022-08-16T13:39:26;3.30;;;2.05;;
35550;SDS011;21655;46.056;13.616;2022-08-16T13:41:51;5.53;;;2.30;;
35550;SDS011;21655;46.056;13.616;2022-08-16T13:44:17;3.78;;;2.10;;
35550;SDS011;21655;46.056;13.616;2022-08-16T13:46:43;5.20;;;2.00;;
35550;SDS011;21655;46.056;13.616;2022-08-16T13:49:11;5.07;;;2.10;;
35550;SDS011;21655;46.056;13.616;2022-08-16T13:51:37;5.30;;;2.28;;
35550;SDS011;21655;46.056;13.616;2022-08-16T13:54:03;5.68;;;2.00;;
35550;SDS011;21655;46.056;13.616;2022-08-16T13:56:30;3.75;;;2.17;;
35550;SDS011;21655;46.056;13.616;2022-08-16T13:58:58;5.68;;;2.33;;
35550;SDS011;21655;46.056;13.616;2022-08-16T14:01:24;3.78;;;1.95;;
35550;SDS011;21655;46.056;13.616;2022-08-16T14:03:49;5.00;;;2.42;;
35550;SDS011;21655;46.056;13.616;2022-08-16T14:06:15;3.83;;;2.05;;
35550;SDS011;21655;46.056;13.616;2022-08-16T14:08:41;7.63;;;2.33;;
35550;SDS011;21655;46.056;13.616;2022-08-16T14:11:07;6.47;;;2.30;;
35550;SDS011;21655;46.056;13.616;2022-08-16T14:13:34;4.55;;;1.95;;
35550;SDS011;21655;46.056;13.616;2022-08-16T14:16:00;6.38;;;2.10;;
35550;SDS011;21655;46.056;13.616;2022-08-16T14:18:25;4.85;;;2.00;;
35550;SDS011;21655;46.056;13.616;2022-08-16T14:20:51;5.97;;;2.20;;
35550;SDS011;21655;46.056;13.616;2022-08-16T14:23:17;4.40;;;2.17;;
35550;SDS011;21655;46.056;13.616;2022-08-16T14:25:43;5.82;;;2.35;;
35550;SDS011;21655;46.056;13.616;2022-08-16T14:28:08;4.57;;;2.15;;
35550;SDS011;21655;46.056;13.616;2022-08-16T14:30:33;3.88;;;2.10;;
35550;SDS011;21655;46.056;13.616;2022-08-16T14:32:59;3.85;;;2.03;;
35550;SDS011;21655;46.056;13.616;2022-08-16T14:35:27;6.97;;;2.05;;
35550;SDS011;21655;46.056;13.616;2022-08-16T14:37:55;4.45;;;2.13;;